createdAt,value
2017-10-25T03:44:47.844Z,11.60
2017-10-25T03:47:14.643Z,10.03
2017-10-25T03:49:41.424Z,9.67
2017-10-25T03:52:08.251Z,10.83
2017-10-25T03:54:35.065Z,10.47
2017-10-25T03:57:01.824Z,9.60
2017-10-25T03:59:28.616Z,9.10
2017-10-25T04:01:55.393Z,8.67
2017-10-25T04:04:22.152Z,7.60
2017-10-25T04:06:48.976Z,8.37
2017-10-25T04:09:15.783Z,8.50
2017-10-25T04:11:42.559Z,6.87
2017-10-25T04:14:09.356Z,7.87
2017-10-25T04:16:36.180Z,7.80
2017-10-25T04:19:02.980Z,8.33
2017-10-25T04:21:29.820Z,8.30
2017-10-25T04:23:56.591Z,7.20
2017-10-25T04:26:23.344Z,8.23
2017-10-25T04:28:50.179Z,8.77
2017-10-25T04:31:17.027Z,7.37
2017-10-25T04:33:43.843Z,7.30
2017-10-25T04:36:10.668Z,7.17
2017-10-25T04:38:37.466Z,6.80
2017-10-25T04:41:04.304Z,6.93
2017-10-25T04:43:31.108Z,7.63
2017-10-25T04:45:57.867Z,6.70
2017-10-25T04:48:24.687Z,7.00
2017-10-25T04:50:51.512Z,6.90
2017-10-25T04:53:18.303Z,5.80
2017-10-25T04:55:45.460Z,7.40
2017-10-25T04:58:12.289Z,7.30
2017-10-25T05:00:39.099Z,7.33
2017-10-25T05:03:05.903Z,8.50
2017-10-25T05:05:32.719Z,7.37
2017-10-25T05:07:59.747Z,6.30
2017-10-25T05:10:26.763Z,7.20
2017-10-25T05:12:53.614Z,6.07
2017-10-25T05:15:20.757Z,6.20
2017-10-25T05:17:47.531Z,5.57
2017-10-25T05:20:14.347Z,6.27
2017-10-25T05:22:41.127Z,6.10
2017-10-25T05:25:08.264Z,5.60
2017-10-25T05:27:35.067Z,6.20
2017-10-25T05:30:02.095Z,7.23
2017-10-25T05:32:29.192Z,6.70
2017-10-25T05:34:56.024Z,7.13
2017-10-25T05:37:22.811Z,7.67
2017-10-25T05:39:49.857Z,8.50
2017-10-25T05:42:16.702Z,6.63
2017-10-25T05:44:43.860Z,7.10
2017-10-25T05:47:10.658Z,7.17
2017-10-25T05:49:37.482Z,7.80
2017-10-25T05:52:04.269Z,9.23
2017-10-25T05:54:31.066Z,7.73
2017-10-25T05:56:57.897Z,6.70
2017-10-25T05:59:24.898Z,7.07
2017-10-25T06:01:52.058Z,8.57
2017-10-25T06:04:18.891Z,8.07
2017-10-25T06:06:45.976Z,7.67
2017-10-25T06:09:12.766Z,6.50
2017-10-25T06:11:39.601Z,7.77
2017-10-25T06:14:06.650Z,7.17
2017-10-25T06:16:33.434Z,7.23
2017-10-25T06:19:00.237Z,6.70
2017-10-25T06:21:27.043Z,6.30
2017-10-25T06:23:53.820Z,7.07
2017-10-25T06:26:20.640Z,7.17
2017-10-25T06:28:47.728Z,6.73
2017-10-25T06:31:14.756Z,5.30
2017-10-25T06:33:41.561Z,5.00
2017-10-25T06:36:08.587Z,5.07
2017-10-25T06:38:35.400Z,4.90
2017-10-25T06:41:02.258Z,3.63
2017-10-25T06:43:29.079Z,4.27
2017-10-25T06:45:55.860Z,3.27
2017-10-25T06:48:22.701Z,3.30
2017-10-25T06:50:49.938Z,3.40
2017-10-25T06:53:16.743Z,3.27
2017-10-25T06:55:43.576Z,3.77
2017-10-25T06:58:10.599Z,4.73
2017-10-25T07:00:37.409Z,4.73
2017-10-25T07:03:04.215Z,5.10
2017-10-25T07:05:31.251Z,5.17
2017-10-25T07:07:58.047Z,5.53
2017-10-25T07:10:24.884Z,4.27
2017-10-25T07:12:51.926Z,5.03
2017-10-25T07:15:18.689Z,5.20
2017-10-25T07:17:45.513Z,5.40
2017-10-25T07:20:12.284Z,5.50
2017-10-25T07:22:39.421Z,4.80
2017-10-25T07:25:06.245Z,4.60
2017-10-25T07:27:33.004Z,5.17
2017-10-25T07:30:00.049Z,5.03
2017-10-25T07:32:26.870Z,4.57
2017-10-25T07:34:53.655Z,5.37
2017-10-25T07:37:20.675Z,5.37
2017-10-25T07:39:47.500Z,5.40
2017-10-25T07:42:14.271Z,4.17
2017-10-25T07:44:41.071Z,4.70
2017-10-25T07:47:07.877Z,4.87
2017-10-25T07:49:34.667Z,5.33
2017-10-25T07:52:01.484Z,5.20
2017-10-25T07:54:28.292Z,4.77
2017-10-25T07:56:55.051Z,5.43
2017-10-25T07:59:21.839Z,6.40
2017-10-25T08:01:48.690Z,4.60
2017-10-25T08:04:15.458Z,5.00
2017-10-25T08:06:43.248Z,5.80
2017-10-25T08:09:10.068Z,4.63
2017-10-25T08:11:36.837Z,5.20
2017-10-25T08:14:03.620Z,3.50
2017-10-25T08:16:30.451Z,4.27
2017-10-25T08:18:57.238Z,5.20
2017-10-25T08:21:24.005Z,4.53
2017-10-25T08:23:50.856Z,3.83
2017-10-25T08:26:17.652Z,4.27
2017-10-25T08:28:44.418Z,4.90
2017-10-25T08:31:11.264Z,2.83
2017-10-25T08:33:38.047Z,4.00
2017-10-25T08:36:04.856Z,4.83
2017-10-25T08:38:31.706Z,3.50
2017-10-25T08:40:58.496Z,4.33
2017-10-25T08:43:25.315Z,3.60
2017-10-25T08:45:52.132Z,4.03
2017-10-25T08:48:18.931Z,2.93
2017-10-25T08:50:45.754Z,2.90
2017-10-25T08:53:12.573Z,3.93
2017-10-25T08:55:39.437Z,5.20
2017-10-25T08:58:06.288Z,4.10
2017-10-25T09:00:33.120Z,2.63
2017-10-25T09:02:59.890Z,3.60
2017-10-25T09:05:26.676Z,3.60
2017-10-25T09:07:53.526Z,3.33
2017-10-25T09:10:20.315Z,4.10
2017-10-25T09:12:47.146Z,4.33
2017-10-25T09:15:14.012Z,3.97
2017-10-25T09:17:40.852Z,4.60
2017-10-25T09:20:07.657Z,4.30
2017-10-25T09:22:34.490Z,4.70
2017-10-25T09:25:01.276Z,4.13
2017-10-25T09:27:28.053Z,3.90
2017-10-25T09:29:54.866Z,3.53
2017-10-25T09:32:21.666Z,3.90
2017-10-25T09:34:48.484Z,3.30
2017-10-25T09:37:15.269Z,4.57
2017-10-25T09:39:42.035Z,3.07
2017-10-25T09:42:08.879Z,4.60
2017-10-25T09:44:35.688Z,3.83
2017-10-25T09:47:02.457Z,4.30
2017-10-25T09:49:29.259Z,4.43
2017-10-25T09:51:56.100Z,3.23
2017-10-25T09:54:22.873Z,4.30
2017-10-25T09:56:49.688Z,4.80
2017-10-25T09:59:16.505Z,3.43
2017-10-25T10:01:43.308Z,3.87
2017-10-25T10:04:10.081Z,4.00
2017-10-25T10:06:36.914Z,4.03
2017-10-25T10:09:03.700Z,4.03
2017-10-25T10:11:30.467Z,3.60
2017-10-25T10:13:57.276Z,3.70
2017-10-25T10:16:24.118Z,2.70
2017-10-25T10:18:50.979Z,4.00
2017-10-25T10:21:17.809Z,3.67
2017-10-25T10:23:44.622Z,3.63
2017-10-25T10:26:11.404Z,2.00
2017-10-25T10:28:38.208Z,3.00
2017-10-25T10:31:04.976Z,1.20
2017-10-25T10:33:32.562Z,1.83
2017-10-25T10:35:59.456Z,2.43
2017-10-25T10:38:26.259Z,2.60
2017-10-25T10:40:53.047Z,2.10
2017-10-25T10:43:19.916Z,2.20
2017-10-25T10:45:46.685Z,2.83
2017-10-25T10:48:13.547Z,2.50
2017-10-25T10:50:40.364Z,3.47
2017-10-25T10:53:07.220Z,0.87
2017-10-25T10:55:33.975Z,2.87
2017-10-25T10:58:00.780Z,2.17
2017-10-25T11:00:27.587Z,1.53
2017-10-25T11:02:54.459Z,1.37
2017-10-25T11:05:22.200Z,1.43
2017-10-25T11:07:48.987Z,1.00
2017-10-25T11:10:15.767Z,1.57
2017-10-25T11:12:42.597Z,1.67
2017-10-25T11:15:09.437Z,2.30
2017-10-25T11:17:36.230Z,1.73
2017-10-25T11:20:03.126Z,1.60
2017-10-25T11:22:29.900Z,1.07
2017-10-25T11:24:56.732Z,1.13
2017-10-25T11:27:23.532Z,2.30
2017-10-25T11:29:50.371Z,0.50
2017-10-25T11:32:17.179Z,2.17
2017-10-25T11:34:43.995Z,1.90
2017-10-25T11:37:10.767Z,2.80
2017-10-25T11:39:37.541Z,2.20
2017-10-25T11:42:04.404Z,1.83
2017-10-25T11:44:31.184Z,1.90
2017-10-25T11:46:57.971Z,0.73
2017-10-25T11:49:24.803Z,1.33
2017-10-25T11:51:51.603Z,2.03
2017-10-25T11:54:18.411Z,1.00
2017-10-25T11:56:45.256Z,2.33
2017-10-25T11:59:12.035Z,1.90
2017-10-25T12:01:38.815Z,2.37
2017-10-25T12:04:05.625Z,0.97
2017-10-25T12:06:32.472Z,1.50
2017-10-25T12:08:59.249Z,1.60
2017-10-25T12:11:26.169Z,1.83
2017-10-25T12:13:53.008Z,1.40
2017-10-25T12:16:19.766Z,1.83
2017-10-25T12:18:46.599Z,2.00
2017-10-25T12:21:13.432Z,1.10
2017-10-25T12:23:40.240Z,1.20
2017-10-25T12:26:07.125Z,2.03
2017-10-25T12:28:33.863Z,2.20
2017-10-25T12:31:00.658Z,1.60
2017-10-25T12:33:27.465Z,1.30
2017-10-25T12:35:54.232Z,0.93
2017-10-25T12:38:21.015Z,1.83
2017-10-25T12:40:47.812Z,1.57
2017-10-25T12:43:14.603Z,1.40
2017-10-25T12:45:41.455Z,1.20
2017-10-25T12:48:08.280Z,1.30
2017-10-25T12:50:35.094Z,1.00
2017-10-25T12:53:01.861Z,1.27
2017-10-25T12:55:28.702Z,1.40
2017-10-25T12:57:55.559Z,0.80
2017-10-25T13:00:22.369Z,0.93
2017-10-25T13:02:49.209Z,0.80
2017-10-25T13:05:16.356Z,0.77
2017-10-25T13:07:43.104Z,0.90
2017-10-25T13:10:29.882Z,1.63
2017-10-25T13:13:23.696Z,1.20
2017-10-25T13:16:03.652Z,1.20
2017-10-25T13:18:39.581Z,0.60
2017-10-25T13:21:07.033Z,0.50
2017-10-25T13:23:33.796Z,0.40
2017-10-25T13:26:00.737Z,0.90
2017-10-25T13:28:27.543Z,0.50
2017-10-25T13:30:54.353Z,1.13
2017-10-25T13:33:21.168Z,0.60
2017-10-25T13:35:47.993Z,1.00
2017-10-25T13:38:14.876Z,0.93
2017-10-25T13:40:42.026Z,1.50
2017-10-25T13:43:08.885Z,0.97
2017-10-25T13:45:35.715Z,0.70
2017-10-25T13:48:02.492Z,1.00
2017-10-25T13:50:29.319Z,1.37
2017-10-25T13:52:56.098Z,0.80
2017-10-25T13:55:22.853Z,0.70
2017-10-25T13:57:49.661Z,1.90
2017-10-25T14:00:16.563Z,0.90
2017-10-25T14:02:43.381Z,0.97
2017-10-25T14:05:10.221Z,1.57
2017-10-25T14:07:37.034Z,0.43
2017-10-25T14:10:03.832Z,0.50
2017-10-25T14:12:30.645Z,2.17
2017-10-25T14:14:57.428Z,1.30
2017-10-25T14:17:24.189Z,1.27
2017-10-25T14:19:51.028Z,1.00
2017-10-25T14:22:17.879Z,1.40
2017-10-25T14:24:44.678Z,1.10
2017-10-25T14:27:17.395Z,1.00
2017-10-25T14:29:44.145Z,1.10
2017-10-25T14:32:10.939Z,0.90
2017-10-25T14:34:37.774Z,1.27
2017-10-25T14:37:04.829Z,1.83
2017-10-25T14:39:31.636Z,1.47
2017-10-25T14:41:58.433Z,1.13
2017-10-25T14:44:25.231Z,1.50
2017-10-25T14:46:52.027Z,1.47
2017-10-25T14:49:18.875Z,1.10
2017-10-25T14:51:45.677Z,0.90
2017-10-25T14:54:12.448Z,1.10
2017-10-25T14:56:39.245Z,1.00
2017-10-25T14:59:06.076Z,1.17
2017-10-25T15:01:32.832Z,1.60
2017-10-25T15:03:59.691Z,1.00
2017-10-25T15:06:26.457Z,1.13
2017-10-25T15:08:53.225Z,0.93
2017-10-25T15:11:20.107Z,1.27
2017-10-25T15:13:47.138Z,1.07
2017-10-25T15:16:13.889Z,1.67
2017-10-25T15:18:40.723Z,1.40
2017-10-25T15:21:07.480Z,1.07
2017-10-25T15:23:34.244Z,1.00
2017-10-25T15:26:01.058Z,1.17
2017-10-25T15:28:27.812Z,1.20
2017-10-25T15:30:54.580Z,1.13
2017-10-25T15:33:21.409Z,1.87
2017-10-25T15:35:48.205Z,1.37
2017-10-25T15:38:14.981Z,1.40
2017-10-25T15:40:41.789Z,1.23
2017-10-25T15:43:08.577Z,1.03
2017-10-25T15:45:35.390Z,1.33
2017-10-25T15:48:02.198Z,1.33
2017-10-25T15:50:29.123Z,1.50
2017-10-25T15:52:55.933Z,1.10
2017-10-25T15:55:22.759Z,1.20
2017-10-25T15:57:49.794Z,1.37
2017-10-25T16:00:16.802Z,1.10
2017-10-25T16:02:43.621Z,0.90
2017-10-25T16:05:10.451Z,1.20
2017-10-25T16:07:37.239Z,1.23
2017-10-25T16:10:04.041Z,1.70
2017-10-25T16:12:30.854Z,1.13
2017-10-25T16:14:57.664Z,1.63
2017-10-25T16:17:24.472Z,1.60
2017-10-25T16:19:51.224Z,1.67
2017-10-25T16:22:18.252Z,1.10
2017-10-25T16:24:45.123Z,1.30
2017-10-25T16:27:11.910Z,1.63
2017-10-25T16:29:38.715Z,1.77
2017-10-25T16:32:05.569Z,1.60
2017-10-25T16:34:32.448Z,1.67
2017-10-25T16:36:59.212Z,1.73
2017-10-25T16:39:26.023Z,2.20
2017-10-25T16:41:52.811Z,2.93
2017-10-25T16:44:19.581Z,1.50
2017-10-25T16:46:46.430Z,1.33
2017-10-25T16:49:13.188Z,2.73
2017-10-25T16:51:40.097Z,2.10
2017-10-25T16:54:06.914Z,2.00
2017-10-25T16:56:33.694Z,2.37
2017-10-25T16:59:00.508Z,1.70
2017-10-25T17:01:27.345Z,1.67
2017-10-25T17:03:54.274Z,2.40
2017-10-25T17:06:21.075Z,1.63
2017-10-25T17:08:47.932Z,1.57
2017-10-25T17:11:14.731Z,1.53
2017-10-25T17:13:41.539Z,2.23
2017-10-25T17:16:08.425Z,1.40
2017-10-25T17:18:35.242Z,2.60
2017-10-25T17:21:02.031Z,1.80
2017-10-25T17:23:28.852Z,2.07
2017-10-25T17:25:56.550Z,2.27
2017-10-25T17:28:23.332Z,2.00
2017-10-25T17:30:50.146Z,1.67
2017-10-25T17:33:16.945Z,2.37
2017-10-25T17:35:43.715Z,1.53
2017-10-25T17:38:10.510Z,2.00
2017-10-25T17:40:37.284Z,2.57
2017-10-25T17:43:04.087Z,1.50
2017-10-25T17:45:30.915Z,2.13
2017-10-25T17:47:57.688Z,1.43
2017-10-25T17:50:24.473Z,1.70
2017-10-25T17:52:51.285Z,1.43
2017-10-25T17:55:18.061Z,1.73
2017-10-25T17:57:44.835Z,2.50
2017-10-25T18:00:11.705Z,1.50
2017-10-25T18:02:38.515Z,1.60
2017-10-25T18:05:05.403Z,1.87
2017-10-25T18:07:32.276Z,1.87
2017-10-25T18:09:59.023Z,1.37
2017-10-25T18:12:25.847Z,2.17
2017-10-25T18:14:52.656Z,1.80
2017-10-25T18:17:19.451Z,1.87
2017-10-25T18:19:46.226Z,1.43
2017-10-25T18:22:13.067Z,2.40
2017-10-25T18:24:39.830Z,2.17
2017-10-25T18:27:06.644Z,1.63
2017-10-25T18:29:33.477Z,1.80
2017-10-25T18:32:00.258Z,2.50
2017-10-25T18:34:27.043Z,1.90
2017-10-25T18:36:53.841Z,1.93
2017-10-25T18:39:20.644Z,1.57
2017-10-25T18:41:47.493Z,1.77
2017-10-25T18:44:14.373Z,2.17
2017-10-25T18:46:41.163Z,1.80
2017-10-25T18:49:08.023Z,1.67
2017-10-25T18:51:34.868Z,2.03
2017-10-25T18:54:01.707Z,2.60
2017-10-25T18:56:28.539Z,2.17
2017-10-25T18:58:55.379Z,1.77
2017-10-25T19:01:22.244Z,2.27
2017-10-25T19:03:49.081Z,2.40
2017-10-25T19:06:15.907Z,1.83
2017-10-25T19:08:42.704Z,2.20
2017-10-25T19:11:09.485Z,2.10
2017-10-25T19:13:36.321Z,2.40
2017-10-25T19:16:03.143Z,2.50
2017-10-25T19:18:30.059Z,2.20
2017-10-25T19:20:56.911Z,1.87
2017-10-25T19:23:23.817Z,1.87
2017-10-25T19:25:50.845Z,2.23
2017-10-25T19:28:17.743Z,2.10
2017-10-25T19:30:44.525Z,2.30
2017-10-25T19:33:11.439Z,1.57
2017-10-25T19:35:38.240Z,1.90
2017-10-25T19:38:05.086Z,2.30
2017-10-25T19:40:31.920Z,1.97
2017-10-25T19:42:58.733Z,2.73
2017-10-25T19:45:25.493Z,2.37
2017-10-25T19:47:52.372Z,1.90
2017-10-25T19:50:19.252Z,2.10
2017-10-25T19:52:46.154Z,1.70
2017-10-25T19:55:13.127Z,1.63
2017-10-25T19:57:39.948Z,2.53
2017-10-25T20:00:06.743Z,3.30
2017-10-25T20:02:33.504Z,2.50
2017-10-25T20:05:00.364Z,2.13
2017-10-25T20:07:27.204Z,1.90
2017-10-25T20:09:53.997Z,2.40
2017-10-25T20:12:20.793Z,2.10
2017-10-25T20:14:47.566Z,1.47
2017-10-25T20:17:14.369Z,1.93
2017-10-25T20:19:41.292Z,2.43
2017-10-25T20:22:08.147Z,1.80
2017-10-25T20:24:35.102Z,1.80
2017-10-25T20:27:02.001Z,2.50
2017-10-25T20:29:28.906Z,1.70
2017-10-25T20:31:55.721Z,3.00
2017-10-25T20:34:22.554Z,3.80
2017-10-25T20:36:49.438Z,3.30
2017-10-25T20:39:16.268Z,3.23
2017-10-25T20:41:43.152Z,2.10
2017-10-25T20:44:09.914Z,2.50
2017-10-25T20:46:36.687Z,2.20
2017-10-25T20:49:03.490Z,1.40
2017-10-25T20:51:30.262Z,2.67
2017-10-25T20:53:57.087Z,2.17
2017-10-25T20:56:23.970Z,2.47
2017-10-25T20:58:50.758Z,2.20
2017-10-25T21:01:17.525Z,2.20
2017-10-25T21:03:44.334Z,1.90
2017-10-25T21:06:11.122Z,2.80
2017-10-25T21:08:37.944Z,2.00
2017-10-25T21:11:04.764Z,1.70
2017-10-25T21:13:31.534Z,2.60
2017-10-25T21:15:58.574Z,2.47
2017-10-25T21:18:25.398Z,2.50
2017-10-25T21:20:52.160Z,2.17
2017-10-25T21:23:18.951Z,2.87
2017-10-25T21:25:45.776Z,1.90
2017-10-25T21:28:12.578Z,2.30
2017-10-25T21:30:39.349Z,2.47
2017-10-25T21:33:06.170Z,2.33
2017-10-25T21:35:33.085Z,2.40
2017-10-25T21:37:59.901Z,2.17
2017-10-25T21:40:26.721Z,2.10
2017-10-25T21:42:53.560Z,2.13
2017-10-25T21:45:20.374Z,2.10
2017-10-25T21:47:47.170Z,3.17
2017-10-25T21:50:13.984Z,2.40
2017-10-25T21:52:40.869Z,2.33
2017-10-25T21:55:07.677Z,2.93
2017-10-25T21:57:34.483Z,1.40
2017-10-25T22:00:01.287Z,1.70
2017-10-25T22:02:28.144Z,2.33
2017-10-25T22:04:55.006Z,2.33
2017-10-25T22:07:21.851Z,2.23
2017-10-25T22:09:48.701Z,2.60
2017-10-25T22:12:15.506Z,2.97
